Latest Weather Observations for Campbelltown

IDN60901

Issued at 7:51 pm EDT Wednesday 10 February 2016 (issued every 10 minutes, with the page automatically refreshed every 10 minutes)

About weather observations | Map of Sydney area stations | Latest observations for Sydney area | Other Formats
Station Details ID: 068257 Name: CAMPBELLTOWN (MOUNT ANNAN) Lat: -34.06 Lon: 150.77 Height: 112.0 m
Data from the previous 72 hours. | See also: Recent months at Campbelltown
Date/Time
EDT
Tmp

°C
App
Tmp
°C
Dew
Point
°C
Rel
Hum
%
Delta-T

°C
Wind Press
QNH
hPa
Press
MSL
hPa
Rain
since
9 am
mm
Dir
 
Spd
km/h
Gust
km/h
Spd
kts
Gust
kts
10/07:30pm 24.6 25.4 16.3 60 5.1 ENE 7 15 4 8 - - 0.0
10/07:00pm 26.1 26.2 16.4 55 6.0 NE 11 19 6 10 - - 0.0
10/06:30pm 27.2 27.0 16.8 53 6.5 ENE 13 19 7 10 - - 0.0
10/06:00pm 28.2 28.0 16.8 50 7.1 ENE 13 19 7 10 - - 0.0
10/05:30pm 29.1 28.6 16.0 45 8.1 NE 13 22 7 12 - - 0.0
10/05:00pm 29.9 29.3 15.6 42 8.9 NNE 13 19 7 10 - - 0.0
10/04:30pm 30.0 29.0 13.3 36 10.0 NNE 11 15 6 8 - - 0.0
10/04:00pm 29.5 28.9 14.5 40 9.1 NNE 11 17 6 9 - - 0.0
10/03:30pm 29.4 28.7 14.4 40 9.1 N 11 20 6 11 - - 0.0
10/03:00pm 29.2 29.2 15.3 42 8.6 NNE 9 17 5 9 - - 0.0
10/02:30pm 28.9 29.1 15.8 45 8.1 NNE 9 17 5 9 - - 0.0
10/02:00pm 28.0 27.3 14.3 43 8.3 N 11 17 6 9 - - 0.0
10/01:30pm 28.0 28.8 17.2 52 6.8 N 9 17 5 9 - - 0.0
10/01:00pm 27.2 26.6 15.6 49 7.1 N 13 20 7 11 - - 0.0
10/12:30pm 26.8 26.4 16.1 52 6.6 NNE 13 26 7 14 - - 0.0
10/12:00pm 26.0 25.9 16.0 54 6.1 NNE 11 19 6 10 - - 0.0
10/11:30am 25.6 25.8 16.7 58 5.5 N 11 15 6 8 - - 0.0
10/11:00am 24.7 25.0 15.9 58 5.4 NNW 9 17 5 9 - - 0.0
10/10:30am 24.3 24.5 16.8 63 4.6 NNW 11 17 6 9 - - 0.0
10/10:00am 23.0 22.8 15.8 64 4.4 N 11 19 6 10 - - 0.0
10/09:30am 22.3 23.7 17.7 75 2.9 NNW 7 15 4 8 - - 0.0
10/09:00am 21.6 24.2 18.4 82 2.0 NNW 2 7 1 4 - - 0.0
10/08:30am 19.3 21.0 17.1 87 1.3 SSW 4 7 2 4 - - 0.0
10/08:00am 17.6 20.2 17.4 99 0.1 CALM 0 0 0 0 - - 0.0
10/07:30am 16.1 18.1 15.9 99 0.1 CALM 0 0 0 0 - - 0.0
10/07:00am 14.9 16.4 14.7 99 0.1 CALM 0 0 0 0 - - 0.0
10/06:30am 14.9 16.4 14.6 98 0.2 CALM 0 0 0 0 - - 0.0
10/06:00am 15.0 16.5 14.7 98 0.2 CALM 0 0 0 0 - - 0.0
10/05:30am 15.1 16.7 14.8 98 0.2 CALM 0 0 0 0 - - 0.0
10/05:00am 15.4 17.1 15.1 98 0.2 CALM 0 0 0 0 - - 0.0
10/04:30am 15.5 17.2 15.2 98 0.2 CALM 0 0 0 0 - - 0.0
10/04:00am 15.4 16.6 14.8 96 0.3 SSW 2 7 1 4 - - 0.0
10/03:30am 15.9 17.7 15.4 97 0.3 CALM 0 0 0 0 - - 0.0
10/03:00am 15.9 17.7 15.4 97 0.3 CALM 0 0 0 0 - - 0.0
10/02:30am 16.2 18.0 15.6 96 0.4 CALM 0 0 0 0 - - 0.0
10/02:00am 16.5 18.5 15.9 96 0.4 CALM 0 0 0 0 - - 0.0
10/01:30am 16.8 18.9 16.2 96 0.4 CALM 0 0 0 0 - - 0.0
10/01:00am 16.9 18.6 16.1 95 0.5 SSE 2 7 1 4 - - 0.0
10/12:30am 17.3 19.5 16.5 95 0.5 CALM 0 0 0 0 - - 0.0
10/12:00am 17.2 19.2 16.1 93 0.7 CALM 0 0 0 0 - - 0.0
 
Date/Time
EDT
Tmp

°C
App
Tmp
°C
Dew
Point
°C
Rel
Hum
%
Delta-T

°C
Wind Press
QNH
hPa
Press
MSL
hPa
Rain
since
9 am
mm
Dir
 
Spd
km/h
Gust
km/h
Spd
kts
Gust
kts
09/11:30pm 17.6 19.1 16.6 94 0.6 SE 4 6 2 3 - - 0.0
09/11:00pm 17.5 19.7 16.4 93 0.7 CALM 0 0 0 0 - - 0.0
09/10:30pm 17.9 18.8 16.2 90 1.0 SE 6 7 3 4 - - 0.0
09/10:00pm 18.4 20.5 16.2 87 1.3 CALM 0 6 0 3 - - 0.0
09/09:30pm 19.1 21.2 16.3 84 1.7 CALM 0 0 0 0 - - 0.0
09/09:00pm 19.8 21.2 16.3 80 2.1 SSE 4 7 2 4 - - 0.0
09/08:30pm 20.5 21.7 15.9 75 2.8 SE 4 9 2 5 - - 0.0
09/08:00pm 21.0 21.2 14.6 67 3.8 E 7 13 4 7 - - 0.0
09/07:30pm 22.0 21.9 14.9 64 4.2 SE 9 17 5 9 - - 0.0
09/07:00pm 23.3 23.1 14.8 59 5.1 ESE 9 19 5 10 - - 0.0
09/06:30pm 24.1 23.5 14.5 55 5.7 ESE 11 15 6 8 - - 0.0
09/06:00pm 24.8 24.2 14.6 53 6.1 ESE 11 17 6 9 - - 0.0
09/05:30pm 25.2 25.0 14.6 51 6.3 ESE 9 17 5 9 - - 0.0
09/05:00pm 25.9 25.4 15.0 51 6.6 SE 11 20 6 11 - - 0.0
09/04:30pm 26.1 25.4 15.5 52 6.5 E 13 22 7 12 - - 0.0
09/04:00pm 26.2 25.8 16.2 54 6.2 E 13 20 7 11 - - 0.0
09/03:30pm 26.2 26.0 15.6 52 6.5 ESE 11 20 6 11 - - 0.0
09/03:00pm 25.9 25.5 15.3 52 6.4 E 11 20 6 11 - - 0.0
09/02:30pm 25.4 24.4 15.7 55 5.9 ESE 15 24 8 13 - - 0.0
09/02:00pm 25.1 25.0 16.0 57 5.6 ESE 11 17 6 9 - - 0.0
09/01:30pm 25.7 25.3 16.3 56 5.8 SE 13 19 7 10 - - 0.0
09/01:00pm 24.9 25.1 15.8 57 5.6 SSE 9 19 5 10 - - 0.0
09/12:30pm 25.5 25.5 15.2 53 6.2 SSE 9 19 5 10 - - 0.0
09/12:00pm 24.7 24.5 15.6 57 5.5 SE 11 19 6 10 - - 0.0
09/11:30am 24.0 24.1 16.5 63 4.6 S 11 17 6 9 - - 0.0
09/11:00am 23.7 23.7 16.2 63 4.6 S 11 17 6 9 - - 0.0
09/10:30am 24.3 24.6 17.1 64 4.5 SSW 11 17 6 9 - - 0.0
09/10:00am 23.7 24.8 17.9 70 3.6 S 9 19 5 10 - - 0.0
09/09:30am 21.7 23.0 18.5 82 2.0 S 9 17 5 9 - - 0.0
09/09:00am 21.0 22.0 17.8 82 2.0 SSW 9 13 5 7 - - 0.0
09/08:30am 20.0 21.4 17.4 85 1.6 S 6 9 3 5 - - 0.0
09/08:00am 19.6 21.4 17.4 87 1.3 SSW 4 7 2 4 - - 0.0
09/07:30am 18.4 19.7 16.2 87 1.3 S 4 7 2 4 - - 0.0
09/07:00am 18.4 18.8 16.4 88 1.2 SSW 9 15 5 8 - - 0.0
09/06:30am 18.0 18.7 16.2 89 1.1 SSW 7 13 4 7 - - 0.0
09/06:00am 17.7 18.5 16.4 92 0.8 SSW 7 13 4 7 - - 0.0
09/05:30am 17.7 18.6 16.0 90 1.0 SSW 6 9 3 5 - - 0.0
09/05:00am 17.7 18.5 15.9 89 1.1 S 6 11 3 6 - - 0.0
09/04:30am 17.8 18.5 16.1 90 1.0 SSW 7 13 4 7 - - 0.0
09/04:00am 17.8 18.6 16.3 91 0.9 S 7 11 4 6 - - 0.0
09/03:30am 18.1 18.5 16.4 90 1.0 S 9 15 5 8 - - 0.0
09/03:00am 18.4 19.1 17.1 92 0.8 SSW 9 13 5 7 - - 0.0
09/02:30am 18.3 19.6 17.1 93 0.7 SSW 6 9 3 5 - - 0.0
09/02:00am 18.7 20.1 17.9 95 0.5 SSW 7 11 4 6 - - 0.0
09/01:30am 18.5 20.2 18.0 97 0.3 S 6 7 3 4 - - 0.0
09/01:00am 18.3 19.8 17.7 96 0.4 SSW 6 9 3 5 - - 0.0
09/12:30am 18.3 19.8 17.5 95 0.5 S 6 9 3 5 - - 0.0
09/12:00am 18.7 20.3 17.9 95 0.5 S 6 7 3 4 - - 0.0
 
Date/Time
EDT
Tmp

°C
App
Tmp
°C
Dew
Point
°C
Rel
Hum
%
Delta-T

°C
Wind Press
QNH
hPa
Press
MSL
hPa
Rain
since
9 am
mm
Dir
 
Spd
km/h
Gust
km/h
Spd
kts
Gust
kts
08/11:30pm 18.8 20.5 18.0 95 0.5 SSW 6 7 3 4 - - 0.0
08/11:00pm 18.6 20.1 17.6 94 0.6 S 6 9 3 5 - - 0.0
08/10:30pm 18.5 20.2 17.2 92 0.8 S 4 7 2 4 - - 0.0
08/10:00pm 18.9 20.2 17.2 90 1.0 S 6 6 3 3 - - 0.0
08/09:30pm 19.5 20.8 17.1 86 1.5 S 6 7 3 4 - - 0.0
08/09:00pm 20.9 22.4 17.5 81 2.1 SE 6 9 3 5 - - 0.0
08/08:30pm 21.4 22.5 17.2 77 2.6 ESE 7 9 4 5 - - 0.0
08/08:00pm 22.3 23.0 16.1 68 3.8 ESE 7 11 4 6 - - 0.0
08/07:30pm 23.6 23.4 14.6 57 5.4 SE 9 15 5 8 - - 0.0
08/07:00pm 25.1 24.2 13.6 49 6.8 ESE 11 19 6 10 - - 0.0
08/06:30pm 26.1 25.3 13.9 47 7.3 ESE 11 17 6 9 - - 0.0
08/06:00pm 27.0 26.2 13.0 42 8.2 E 9 20 5 11 - - 0.0
08/05:30pm 27.6 26.8 13.9 43 8.2 ESE 11 20 6 11 - - 0.0
08/05:00pm 28.1 27.3 14.0 42 8.5 ENE 11 17 6 9 - - 0.0
08/04:30pm 28.5 27.9 13.6 40 8.9 E 9 17 5 9 - - 0.0
08/04:00pm 28.7 28.7 15.2 43 8.3 ESE 9 19 5 10 - - 0.0
08/03:30pm 29.3 29.7 17.2 48 7.7 NE 11 20 6 11 - - 0.0
08/03:00pm 29.2 29.2 15.3 42 8.6 N 9 15 5 8 - - 0.0
08/02:30pm 28.6 28.3 14.4 41 8.6 NNW 9 15 5 8 - - 0.0
08/02:00pm 28.7 29.7 16.9 48 7.4 ESE 7 13 4 7 - - 0.0
08/01:30pm 28.2 28.1 16.1 47 7.5 NNE 11 19 6 10 - - 0.0
08/01:00pm 27.7 27.6 15.0 45 7.7 N 9 15 5 8 - - 0.0
08/12:30pm 27.5 28.4 16.5 51 6.8 WSW 7 11 4 6 - - 0.0
08/12:00pm 26.7 27.1 16.3 53 6.4 NNE 9 13 5 7 - - 0.0
08/11:30am 26.0 26.4 15.4 52 6.5 NNW 7 11 4 6 - - 0.0
08/11:00am 25.0 25.3 15.9 57 5.6 WSW 9 13 5 7 - - 0.0
08/10:30am 24.4 24.9 15.6 58 5.3 SW 7 13 4 7 - - 0.0
08/10:00am 23.6 24.4 15.9 62 4.7 S 6 11 3 6 - - 0.0
08/09:30am 21.9 22.1 15.7 68 3.7 SW 9 13 5 7 - - 0.0
08/09:00am 20.5 20.6 15.5 73 3.0 SW 9 13 5 7 - - 0.0
08/08:30am 19.2 19.7 15.5 79 2.2 S 7 11 4 6 - - 0.0
08/08:00am 17.9 18.3 15.2 84 1.6 SSW 7 11 4 6 - - 0.0
08/07:30am 17.0 16.5 15.0 88 1.2 SSW 11 19 6 10 - - 0.0
08/07:00am 15.9 15.8 14.9 94 0.6 S 9 17 5 9 - - 0.0
08/06:30am 15.4 15.5 14.4 94 0.6 S 7 13 4 7 - - 0.0
08/06:00am 15.4 15.7 14.6 95 0.5 SSW 6 9 3 5 - - 0.0
08/05:30am 15.9 16.2 14.9 94 0.6 SSW 7 11 4 6 - - 0.0
08/05:00am 16.3 16.0 15.5 95 0.5 SSW 11 17 6 9 - - 0.0
08/04:30am 16.1 16.2 15.6 97 0.3 SSW 9 13 5 7 - - 0.0
08/04:00am 16.1 16.6 15.6 97 0.3 SSW 7 11 4 6 - - 0.0
08/03:30am 16.1 16.2 15.5 96 0.4 SSW 9 13 5 7 - - 0.0
08/03:00am 16.4 17.0 15.9 97 0.3 SSW 7 9 4 5 - - 0.0
08/02:30am 16.5 17.1 15.9 96 0.4 S 7 9 4 5 - - 0.0
08/02:00am 16.9 17.7 16.3 96 0.4 S 7 11 4 6 - - 0.0
08/01:30am 17.0 17.9 16.7 98 0.2 SSW 7 11 4 6 - - 0.0
08/01:00am 16.7 18.7 16.1 96 0.4 CALM 0 0 0 0 - - 0.0
08/12:30am 16.7 18.7 15.9 95 0.5 CALM 0 0 0 0 - - 0.0
08/12:00am 17.0 19.1 16.2 95 0.5 CALM 0 0 0 0 - - 0.0
 
Date/Time
EDT
Tmp

°C
App
Tmp
°C
Dew
Point
°C
Rel
Hum
%
Delta-T

°C
Wind Press
QNH
hPa
Press
MSL
hPa
Rain
since
9 am
mm
Dir
 
Spd
km/h
Gust
km/h
Spd
kts
Gust
kts
07/11:30pm 17.3 19.4 16.3 94 0.6 CALM 0 0 0 0 - - 0.0
07/11:00pm 17.8 20.1 16.7 93 0.7 CALM 0 0 0 0 - - 0.0
07/10:30pm 18.0 20.3 16.7 92 0.8 CALM 0 0 0 0 - - 0.0
07/10:00pm 18.0 20.1 16.3 90 1.0 CALM 0 0 0 0 - - 0.0
07/09:30pm 18.7 20.7 16.1 85 1.6 CALM 0 0 0 0 - - 0.0
07/09:00pm 20.1 21.8 16.3 79 2.3 SE 2 6 1 3 - - 0.0
07/08:30pm 20.9 21.8 16.1 74 2.9 SE 6 9 3 5 - - 0.0
07/08:00pm 21.7 22.3 15.8 69 3.6 SE 7 11 4 6 - - 0.0

Latest Capital City Observations: Canberra | Sydney | Melbourne | Brisbane | Adelaide | Perth | Hobart | Darwin

Other Formats:

Comma delimited format used in spreadsheet applications
http://www.bom.gov.au/fwo/IDN60901/IDN60901.94757.axf

JavaScript Object Notation format (JSON) in row-major order
http://www.bom.gov.au/fwo/IDN60901/IDN60901.94757.json